Time;durP1;ratioP1;P1;durP2;ratioP2;P2;SDS_P1;SDS_P2;PMS_P1;PMS_P2;Temp;Humidity;BMP_temperature;BMP_pressure;BME280_temperature;BME280_humidity;BME280_pressure;Samples;Min_cycle;Max_cycle;Signal;HPM_P1;HPM_P2
2023/03/10 00:00:19;;;;;;;;;;;;;;;19.62;59.08;97745.41;2073582;28;19929;-65
2023/03/10 00:01:22;;;;;;;;;;;;;;;19.62;58.93;97735.47;2078364;28;19975;-65
2023/03/10 00:02:22;;;;;;;;;;;;;;;19.62;58.85;97746.25;2072621;28;19933;-65
2023/03/10 00:03:24;;;;;;;;;;;;;;;19.62;58.76;97740.03;2079524;28;20691;-65
2023/03/10 00:04:24;;;;;;;;;;;;;;;19.63;59.14;97744.38;2072383;28;20348;-65
2023/03/10 00:05:25;;;;;;;;;;;;;;;19.64;58.93;97743.31;2071556;28;19987;-66
2023/03/10 00:06:27;;;;;;;;;;;;;;;19.64;59.02;97733.38;2075917;28;21313;-65
2023/03/10 00:07:29;;;;;;;;;;;;;;;19.64;58.92;97737.94;2072726;28;19936;-65
2023/03/10 00:08:29;;;;;;;;;;;;;;;19.63;58.74;97728.22;2073392;28;19986;-64
2023/03/10 00:09:31;;;;;;;;;;;;;;;19.62;58.95;97729.28;2072450;28;20352;-65
2023/03/10 00:10:31;;;;;;;;;;;;;;;19.61;59.04;97727.63;2074840;28;20397;-65
2023/03/10 00:11:33;;;;;;;;;;;;;;;19.61;58.82;97723.09;2066965;28;19932;-65
2023/03/10 00:12:34;;;;;;;;;;;;;;;19.63;58.99;97728.22;2070841;28;19937;-65
2023/03/10 00:13:35;;;;;;;;;;;;;;;19.62;58.96;97724.72;2074078;28;19933;-65
2023/03/10 00:14:37;;;;;;;;;;;;;;;19.62;58.92;97722.03;2077720;28;19932;-65
2023/03/10 00:15:39;;;;;;;;;;;;;;;19.62;58.99;97730.09;2067980;28;19956;-64
2023/03/10 00:16:39;;;;;;;;;;;;;;;19.62;58.81;97727.41;2070547;28;20042;-65
2023/03/10 00:17:41;;;;;;;;;;;;;;;19.62;58.79;97729.28;2076221;28;19936;-65
2023/03/10 00:18:41;;;;;;;;;;;;;;;19.61;58.92;97725.78;2073659;28;19929;-65
2023/03/10 00:19:43;;;;;;;;;;;;;;;19.61;59.05;97731.16;2068929;28;20014;-65
2023/03/10 00:20:43;;;;;;;;;;;;;;;19.60;58.72;97726.00;2065175;28;20550;-65
2023/03/10 00:21:45;;;;;;;;;;;;;;;19.59;58.96;97732.44;2073399;28;19940;-65
2023/03/10 00:22:46;;;;;;;;;;;;;;;19.59;58.92;97733.25;2080365;28;19925;-64
2023/03/10 00:23:48;;;;;;;;;;;;;;;19.58;58.82;97726.22;2069365;28;19971;-65
2023/03/10 00:24:48;;;;;;;;;;;;;;;19.61;58.95;97722.25;2072744;28;19929;-65
2023/03/10 00:25:54;;;;;;;;;;;;;;;19.58;59.00;97720.84;2070770;28;19928;-65
2023/03/10 00:26:55;;;;;;;;;;;;;;;19.57;58.65;97723.78;2069163;28;19932;-65
2023/03/10 00:27:56;;;;;;;;;;;;;;;19.57;58.99;97723.78;2072446;28;19964;-65
2023/03/10 00:28:56;;;;;;;;;;;;;;;19.58;58.96;97722.72;2072659;28;19978;-65
2023/03/10 00:29:59;;;;;;;;;;;;;;;19.58;58.70;97723.53;2072645;28;19979;-64
2023/03/10 00:31:01;;;;;;;;;;;;;;;19.57;59.09;97721.09;2074950;28;19928;-65
2023/03/10 00:32:02;;;;;;;;;;;;;;;19.57;58.98;97718.41;2072754;28;20027;-65
2023/03/10 00:33:04;;;;;;;;;;;;;;;19.56;58.87;97724.84;2076216;28;21735;-64
2023/03/10 00:34:04;;;;;;;;;;;;;;;19.55;58.74;97720.50;2070162;28;19985;-65
2023/03/10 00:35:06;;;;;;;;;;;;;;;19.55;59.07;97713.22;2070341;28;19929;-65
2023/03/10 00:36:07;;;;;;;;;;;;;;;19.54;58.78;97713.47;2075743;28;20413;-66
2023/03/10 00:37:09;;;;;;;;;;;;;;;19.54;58.91;97717.00;2073558;28;19932;-64
2023/03/10 00:38:09;;;;;;;;;;;;;;;19.55;58.77;97712.41;2074013;28;19925;-65
2023/03/10 00:39:11;;;;;;;;;;;;;;;19.55;58.63;97717.78;2073062;28;19936;-65
2023/03/10 00:40:13;;;;;;;;;;;;;;;19.53;58.69;97712.66;2078329;28;20007;-66
2023/03/10 00:41:15;;;;;;;;;;;;;;;19.52;58.74;97713.69;2065542;28;20470;-65
2023/03/10 00:42:16;;;;;;;;;;;;;;;19.52;58.92;97712.88;2071367;28;20111;-65
2023/03/10 00:43:17;;;;;;;;;;;;;;;19.52;58.95;97716.38;2072844;28;20271;-65
2023/03/10 00:44:18;;;;;;;;;;;;;;;19.51;59.05;97711.25;2071702;28;20667;-64
2023/03/10 00:45:20;;;;;;;;;;;;;;;19.51;58.69;97706.69;2067414;28;20021;-65
2023/03/10 00:46:21;;;;;;;;;;;;;;;19.51;59.11;97700.50;2066434;28;19929;-65
2023/03/10 00:47:22;;;;;;;;;;;;;;;19.51;58.85;97695.13;2073608;28;19956;-64
2023/03/10 00:48:23;;;;;;;;;;;;;;;19.50;58.83;97699.69;2075990;28;19937;-65
2023/03/10 00:49:24;;;;;;;;;;;;;;;19.50;59.13;97701.53;2073844;28;20931;-65
2023/03/10 00:50:25;;;;;;;;;;;;;;;19.49;59.09;97698.03;2070287;28;20170;-65
2023/03/10 00:51:26;;;;;;;;;;;;;;;19.49;59.04;97697.22;2070401;28;19986;-65
2023/03/10 00:52:30;;;;;;;;;;;;;;;19.48;58.78;97696.41;2067745;28;19933;-65
2023/03/10 00:53:31;;;;;;;;;;;;;;;19.47;59.05;97686.69;2071801;28;19976;-64
2023/03/10 00:54:32;;;;;;;;;;;;;;;19.48;58.80;97690.22;2069982;28;19958;-66
2023/03/10 00:55:33;;;;;;;;;;;;;;;19.48;58.82;97696.41;2073030;28;19959;-64
2023/03/10 00:56:34;;;;;;;;;;;;;;;19.49;58.73;97702.59;2076369;28;20263;-66
2023/03/10 00:57:35;;;;;;;;;;;;;;;19.47;59.00;97705.50;2072661;28;20665;-64
2023/03/10 00:58:36;;;;;;;;;;;;;;;19.45;59.04;97702.25;2068915;28;19929;-64
2023/03/10 00:59:37;;;;;;;;;;;;;;;19.47;58.86;97689.38;2070123;28;20062;-66
2023/03/10 01:00:39;;;;;;;;;;;;;;;19.45;59.13;97680.72;2070903;28;19929;-65
2023/03/10 01:01:41;;;;;;;;;;;;;;;19.45;59.12;97679.91;2068912;28;19935;-64
2023/03/10 01:02:42;;;;;;;;;;;;;;;19.45;58.95;97675.34;2071218;28;19937;-66
2023/03/10 01:03:43;;;;;;;;;;;;;;;19.42;58.84;97671.25;2078029;28;19982;-65
2023/03/10 01:04:44;;;;;;;;;;;;;;;19.43;59.00;97675.56;2072193;28;20026;-65
2023/03/10 01:05:46;;;;;;;;;;;;;;;19.42;59.11;97682.00;2069559;28;20382;-66
2023/03/10 01:06:46;;;;;;;;;;;;;;;19.43;59.06;97682.81;2075883;28;19991;-65
2023/03/10 01:07:48;;;;;;;;;;;;;;;19.43;59.01;97677.44;2072480;28;20239;-65
2023/03/10 01:08:49;;;;;;;;;;;;;;;19.40;59.15;97676.03;2071682;28;19932;-65
2023/03/10 01:09:50;;;;;;;;;;;;;;;19.40;58.92;97664.47;2071202;28;19943;-64
2023/03/10 01:10:51;;;;;;;;;;;;;;;19.39;58.98;97668.22;2077754;28;19978;-64
2023/03/10 01:11:52;;;;;;;;;;;;;;;19.41;59.02;97660.72;2071486;28;19987;-64
2023/03/10 01:12:52;;;;;;;;;;;;;;;19.38;59.07;97653.94;2074074;28;20218;-65
2023/03/10 01:13:56;;;;;;;;;;;;;;;19.39;59.18;97633.25;2079091;28;19929;-65
2023/03/10 01:14:56;;;;;;;;;;;;;;;19.39;59.07;97638.66;2076798;28;19929;-66
2023/03/10 01:15:59;;;;;;;;;;;;;;;19.38;59.15;97643.19;2071908;28;19987;-65
2023/03/10 01:16:59;;;;;;;;;;;;;;;19.37;59.09;97662.25;2072341;28;19929;-64
2023/03/10 01:18:02;;;;;;;;;;;;;;;19.37;58.79;97656.88;2076053;28;19974;-65
2023/03/10 01:19:02;;;;;;;;;;;;;;;19.37;59.11;97659.56;2072139;28;20512;-64
2023/03/10 01:20:08;;;;;;;;;;;;;;;19.37;59.04;97651.50;2068742;28;19929;-64
2023/03/10 01:21:11;;;;;;;;;;;;;;;19.34;59.06;97660.84;2076201;28;20301;-64
2023/03/10 01:22:12;;;;;;;;;;;;;;;19.35;59.04;97651.72;2073092;28;19956;-65
2023/03/10 01:23:14;;;;;;;;;;;;;;;19.34;59.08;97636.66;2075387;28;19933;-65
2023/03/10 01:24:16;;;;;;;;;;;;;;;19.34;59.12;97631.25;2081095;28;19932;-65
2023/03/10 01:25:16;;;;;;;;;;;;;;;19.33;59.13;97634.16;2069564;28;20394;-65
2023/03/10 01:26:17;;;;;;;;;;;;;;;19.34;59.03;97646.59;2073496;28;20020;-64
2023/03/10 01:27:20;;;;;;;;;;;;;;;19.33;58.87;97635.00;2074238;28;20216;-66
2023/03/10 01:28:22;;;;;;;;;;;;;;;19.33;59.03;97637.66;2072159;28;20310;-64
2023/03/10 01:29:22;;;;;;;;;;;;;;;19.33;59.04;97640.38;2073896;28;19963;-65
2023/03/10 01:30:24;;;;;;;;;;;;;;;19.32;58.91;97649.50;2076743;28;19975;-65
2023/03/10 01:31:25;;;;;;;;;;;;;;;19.31;59.02;97634.41;2072349;28;19978;-64
2023/03/10 01:32:27;;;;;;;;;;;;;;;19.31;58.85;97633.59;2072958;28;19982;-64
2023/03/10 01:33:27;;;;;;;;;;;;;;;19.31;59.04;97633.59;2073847;28;19933;-64
2023/03/10 01:34:29;;;;;;;;;;;;;;;19.29;58.80;97639.19;2074970;28;20382;-64
2023/03/10 01:35:30;;;;;;;;;;;;;;;19.31;58.93;97633.59;2073940;28;19933;-65
2023/03/10 01:36:31;;;;;;;;;;;;;;;19.30;59.06;97630.06;2068373;28;19928;-65
2023/03/10 01:37:32;;;;;;;;;;;;;;;19.31;58.91;97639.00;2071970;28;20071;-65
2023/03/10 01:38:33;;;;;;;;;;;;;;;19.29;59.01;97627.63;2076951;28;20353;-65
2023/03/10 01:39:33;;;;;;;;;;;;;;;19.30;58.54;97623.88;2075749;28;20846;-65
2023/03/10 01:40:35;;;;;;;;;;;;;;;19.28;58.73;97621.44;2079135;28;21501;-65
2023/03/10 01:41:38;;;;;;;;;;;;;;;19.28;58.50;97623.28;2073930;28;19971;-65
2023/03/10 01:42:40;;;;;;;;;;;;;;;19.26;58.69;97615.47;2075251;28;19925;-65
2023/03/10 01:43:41;;;;;;;;;;;;;;;19.26;58.79;97614.66;2079045;28;19929;-64
2023/03/10 01:44:43;;;;;;;;;;;;;;;19.23;58.79;97624.00;2075799;28;20087;-65
2023/03/10 01:46:02;;;;;;;;;;;;;;;19.25;58.96;97621.91;2080732;28;19982;-64
2023/03/10 01:47:05;;;;;;;;;;;;;;;19.24;58.78;97617.56;2077941;28;19928;-65
2023/03/10 01:48:05;;;;;;;;;;;;;;;19.23;58.67;97617.81;2072996;28;19925;-66
2023/03/10 01:49:18;;;;;;;;;;;;;;;19.23;58.84;97615.94;2071127;28;19929;-65
2023/03/10 01:50:19;;;;;;;;;;;;;;;19.24;58.70;97619.44;2081067;28;19932;-65
2023/03/10 01:51:21;;;;;;;;;;;;;;;19.24;58.48;97611.38;2076360;28;19933;-66
2023/03/10 01:52:24;;;;;;;;;;;;;;;19.24;58.67;97609.50;2074907;28;19925;-66
2023/03/10 01:53:26;;;;;;;;;;;;;;;19.24;58.53;97614.88;2069930;28;20315;-64
2023/03/10 01:54:30;;;;;;;;;;;;;;;19.23;58.53;97607.88;2075212;28;20115;-64
2023/03/10 01:55:32;;;;;;;;;;;;;;;19.22;58.79;97600.84;2072419;28;19982;-64
2023/03/10 01:56:34;;;;;;;;;;;;;;;19.20;58.45;97608.34;2080255;28;20003;-65
2023/03/10 01:57:37;;;;;;;;;;;;;;;19.22;58.73;97600.84;2074700;28;19933;-66
2023/03/10 01:58:39;;;;;;;;;;;;;;;19.21;58.38;97596.53;2073340;28;19928;-65
2023/03/10 01:59:41;;;;;;;;;;;;;;;19.21;58.38;97599.22;2068921;28;20051;-65
2023/03/10 02:00:42;;;;;;;;;;;;;;;19.20;58.65;97593.03;2070557;28;20027;-65
2023/03/10 02:01:43;;;;;;;;;;;;;;;19.21;58.41;97588.47;2072452;28;19924;-64
2023/03/10 02:02:50;;;;;;;;;;;;;;;19.19;58.40;97588.72;2078135;28;19986;-65
2023/03/10 02:03:54;;;;;;;;;;;;;;;19.19;58.58;97591.41;2074320;28;19936;-65
2023/03/10 02:04:57;;;;;;;;;;;;;;;19.19;58.51;97590.56;2073276;28;20075;-64
2023/03/10 02:05:58;;;;;;;;;;;;;;;19.17;58.53;97588.13;2077617;28;19933;-64
2023/03/10 02:07:02;;;;;;;;;;;;;;;19.16;58.42;97586.47;2079352;28;21358;-65
2023/03/10 02:08:03;;;;;;;;;;;;;;;19.16;58.75;97586.47;2073185;28;20394;-65
2023/03/10 02:09:05;;;;;;;;;;;;;;;19.16;58.62;97585.66;2071293;28;20407;-65
2023/03/10 02:10:07;;;;;;;;;;;;;;;19.16;58.42;97582.97;2070685;28;19929;-64
2023/03/10 02:11:07;;;;;;;;;;;;;;;19.16;58.41;97589.16;2073395;28;19936;-64
2023/03/10 02:12:09;;;;;;;;;;;;;;;19.15;58.36;97576.78;2080496;28;20023;-64
2023/03/10 02:13:10;;;;;;;;;;;;;;;19.13;58.32;97570.81;2072354;28;20433;-65
2023/03/10 02:14:11;;;;;;;;;;;;;;;19.14;58.54;97571.66;2078955;28;19982;-64
2023/03/10 02:15:12;;;;;;;;;;;;;;;19.13;58.33;97576.19;2073775;28;20374;-65
2023/03/10 02:16:14;;;;;;;;;;;;;;;19.12;58.48;97576.44;2074509;28;20764;-65
2023/03/10 02:17:17;;;;;;;;;;;;;;;19.12;58.35;97565.69;2072631;28;20024;-65
2023/03/10 02:18:21;;;;;;;;;;;;;;;19.11;58.35;97572.94;2064196;28;20378;-65
2023/03/10 02:19:39;;;;;;;;;;;;;;;19.11;58.56;97562.19;2077506;28;19925;-65
2023/03/10 02:20:44;;;;;;;;;;;;;;;19.10;58.34;97559.72;2071805;28;20880;-65
2023/03/10 02:21:48;;;;;;;;;;;;;;;19.08;58.29;97557.25;2073182;28;22177;-65
2023/03/10 02:22:49;;;;;;;;;;;;;;;19.09;58.62;97558.09;2074298;28;20013;-65
2023/03/10 02:23:54;;;;;;;;;;;;;;;19.08;58.63;97557.25;2076059;28;19933;-65
2023/03/10 02:25:00;;;;;;;;;;;;;;;19.09;58.45;97560.78;2077987;28;20769;-64
2023/03/10 02:26:04;;;;;;;;;;;;;;;19.06;58.45;97561.25;2065572;28;20024;-64
2023/03/10 02:27:11;;;;;;;;;;;;;;;19.07;58.44;97561.00;2070221;28;19928;-64
2023/03/10 02:28:12;;;;;;;;;;;;;;;19.04;58.34;97556.09;2075849;28;19971;-65
2023/03/10 02:29:17;;;;;;;;;;;;;;;19.04;58.60;97552.59;2076237;28;20382;-65
2023/03/10 02:30:19;;;;;;;;;;;;;;;19.03;58.41;97553.63;2075017;28;20310;-66
2023/03/10 02:31:21;;;;;;;;;;;;;;;19.02;58.33;97550.13;2069183;28;19933;-66
2023/03/10 02:32:22;;;;;;;;;;;;;;;19.03;58.18;97550.94;2072648;28;19937;-66
2023/03/10 02:33:25;;;;;;;;;;;;;;;19.02;58.41;97552.00;2070774;28;21257;-66
2023/03/10 02:34:26;;;;;;;;;;;;;;;19.00;58.44;97544.19;2071740;28;19937;-64
2023/03/10 02:35:28;;;;;;;;;;;;;;;19.01;58.33;97545.81;2070069;28;19933;-65
2023/03/10 02:36:29;;;;;;;;;;;;;;;19.02;58.63;97547.44;2071880;28;20005;-64
2023/03/10 02:37:31;;;;;;;;;;;;;;;19.00;58.30;97546.03;2071754;28;19936;-65
2023/03/10 02:38:31;;;;;;;;;;;;;;;19.00;58.66;97540.66;2072300;28;19932;-65
2023/03/10 02:39:33;;;;;;;;;;;;;;;18.98;58.60;97544.41;2078077;28;19929;-65
2023/03/10 02:40:36;;;;;;;;;;;;;;;18.96;58.45;97538.44;2072346;28;19978;-65
2023/03/10 02:41:38;;;;;;;;;;;;;;;18.97;58.67;97536.56;2069997;28;19955;-64
2023/03/10 02:42:40;;;;;;;;;;;;;;;18.96;58.41;97532.25;2076588;28;20006;-64
2023/03/10 02:43:42;;;;;;;;;;;;;;;18.95;58.56;97525.25;2068536;28;20489;-65
2023/03/10 02:44:43;;;;;;;;;;;;;;;18.96;58.47;97533.06;2069469;28;20394;-64
2023/03/10 02:45:45;;;;;;;;;;;;;;;18.95;58.28;97526.06;2076497;28;19955;-65
2023/03/10 02:46:46;;;;;;;;;;;;;;;18.94;58.57;97516.38;2078657;28;19979;-64
2023/03/10 02:47:47;;;;;;;;;;;;;;;18.93;58.24;97521.97;2072303;28;19925;-65
2023/03/10 02:48:48;;;;;;;;;;;;;;;18.93;58.57;97516.59;2075884;28;20468;-65
2023/03/10 02:49:49;;;;;;;;;;;;;;;18.91;58.64;97518.69;2072770;28;19933;-65
2023/03/10 02:50:50;;;;;;;;;;;;;;;18.92;58.25;97509.59;2076374;28;19986;-64
2023/03/10 02:51:52;;;;;;;;;;;;;;;18.91;58.33;97513.31;2065074;28;20162;-65
2023/03/10 02:52:56;;;;;;;;;;;;;;;18.91;58.68;97516.00;2065937;28;19924;-66
2023/03/10 02:53:59;;;;;;;;;;;;;;;18.90;58.71;97514.38;2072828;28;19976;-65
2023/03/10 02:54:59;;;;;;;;;;;;;;;18.91;58.36;97516.00;2074343;28;19995;-65
2023/03/10 02:56:01;;;;;;;;;;;;;;;18.89;58.57;97510.88;2070690;28;19928;-66
2023/03/10 02:57:01;;;;;;;;;;;;;;;18.88;58.47;97513.78;2075170;28;19929;-64
2023/03/10 02:58:04;;;;;;;;;;;;;;;18.87;58.32;97518.34;2075175;28;20014;-66
2023/03/10 02:59:05;;;;;;;;;;;;;;;18.87;58.57;97518.34;2070193;28;20224;-65
2023/03/10 03:00:08;;;;;;;;;;;;;;;18.87;58.60;97518.34;2071727;28;20420;-66
2023/03/10 03:01:09;;;;;;;;;;;;;;;18.86;58.65;97523.94;2066581;28;19943;-65
2023/03/10 03:02:10;;;;;;;;;;;;;;;18.85;58.76;97517.75;2078297;28;20469;-66
2023/03/10 03:03:12;;;;;;;;;;;;;;;18.86;58.48;97524.78;2070403;28;19929;-65
2023/03/10 03:04:13;;;;;;;;;;;;;;;18.86;58.78;97518.56;2069317;28;20072;-66
2023/03/10 03:05:13;;;;;;;;;;;;;;;18.86;58.45;97516.72;2075200;28;19936;-65
2023/03/10 03:06:15;;;;;;;;;;;;;;;18.84;58.67;97513.44;2070411;28;20398;-65
2023/03/10 03:07:15;;;;;;;;;;;;;;;18.84;58.49;97512.63;2074868;28;19933;-65
2023/03/10 03:08:17;;;;;;;;;;;;;;;18.82;58.67;97515.53;2075375;28;19951;-65
2023/03/10 03:09:18;;;;;;;;;;;;;;;18.84;58.42;97518.00;2074510;28;19947;-65
2023/03/10 03:10:20;;;;;;;;;;;;;;;18.83;58.64;97510.97;2072371;28;19928;-64
2023/03/10 03:11:20;;;;;;;;;;;;;;;18.82;58.51;97512.84;2080125;28;20352;-65
2023/03/10 03:12:22;;;;;;;;;;;;;;;18.82;58.78;97514.72;2071736;28;19929;-65
2023/03/10 03:13:24;;;;;;;;;;;;;;;18.79;58.68;97510.63;2069917;28;19932;-65
2023/03/10 03:14:25;;;;;;;;;;;;;;;18.80;58.82;97508.75;2073671;28;19979;-66
2023/03/10 03:15:26;;;;;;;;;;;;;;;18.77;58.61;97506.53;2078851;28;19932;-65
2023/03/10 03:16:27;;;;;;;;;;;;;;;18.77;58.65;97504.66;2079474;28;19933;-65
2023/03/10 03:17:27;;;;;;;;;;;;;;;18.78;58.79;97508.16;2075896;28;19932;-64
2023/03/10 03:18:29;;;;;;;;;;;;;;;18.75;58.55;97499.53;2074706;28;19936;-66
2023/03/10 03:19:29;;;;;;;;;;;;;;;18.75;58.61;97498.72;2075752;28;19930;-65
2023/03/10 03:20:31;;;;;;;;;;;;;;;18.75;58.59;97504.09;2072886;28;20055;-66
2023/03/10 03:21:32;;;;;;;;;;;;;;;18.75;58.62;97498.72;2073649;28;19979;-65
2023/03/10 03:22:33;;;;;;;;;;;;;;;18.74;58.65;97497.06;2072839;28;20297;-64
2023/03/10 03:23:34;;;;;;;;;;;;;;;18.72;58.66;97489.22;2071447;28;20218;-65
2023/03/10 03:24:35;;;;;;;;;;;;;;;18.74;58.73;97486.31;2074971;28;20461;-65
2023/03/10 03:25:37;;;;;;;;;;;;;;;18.73;58.75;97484.66;2079519;28;19929;-65
2023/03/10 03:26:40;;;;;;;;;;;;;;;18.72;58.72;97483.84;2074452;28;19966;-64
2023/03/10 03:27:40;;;;;;;;;;;;;;;18.73;58.58;97484.66;2068959;28;20102;-65
2023/03/10 03:28:44;;;;;;;;;;;;;;;18.73;58.60;97479.28;2077764;28;19991;-65
2023/03/10 03:29:44;;;;;;;;;;;;;;;18.71;58.79;97478.69;2071848;28;20119;-66
2023/03/10 03:30:46;;;;;;;;;;;;;;;18.69;58.79;97473.56;2073511;28;20075;-65
2023/03/10 03:31:46;;;;;;;;;;;;;;;18.70;58.84;97477.06;2077095;28;19970;-65
2023/03/10 03:32:48;;;;;;;;;;;;;;;18.69;58.94;97470.03;2068545;28;20006;-65
2023/03/10 03:33:49;;;;;;;;;;;;;;;18.67;58.85;97467.59;2067350;28;19928;-66
2023/03/10 03:34:50;;;;;;;;;;;;;;;18.68;58.63;97471.91;2068168;28;20504;-65
2023/03/10 03:35:51;;;;;;;;;;;;;;;18.66;58.87;97471.31;2077381;28;19928;-65
2023/03/10 03:36:52;;;;;;;;;;;;;;;18.66;58.76;97463.25;2070233;28;20325;-65
2023/03/10 03:37:53;;;;;;;;;;;;;;;18.66;58.63;97467.81;2071564;28;19932;-65
2023/03/10 03:38:55;;;;;;;;;;;;;;;18.66;58.76;97462.44;2072082;28;19984;-65
2023/03/10 03:39:55;;;;;;;;;;;;;;;18.65;58.73;97466.19;2076490;28;20318;-65
2023/03/10 03:40:57;;;;;;;;;;;;;;;18.66;58.99;97470.50;2074253;28;20044;-65
2023/03/10 03:41:57;;;;;;;;;;;;;;;18.64;58.68;97460.00;2071073;28;20096;-65
2023/03/10 03:42:58;;;;;;;;;;;;;;;18.64;58.88;97465.38;2076774;28;19983;-65
2023/03/10 03:44:00;;;;;;;;;;;;;;;18.63;58.81;97463.72;2074763;28;19936;-65
2023/03/10 03:45:03;;;;;;;;;;;;;;;18.64;58.69;97461.88;2072875;28;20521;-66
2023/03/10 03:46:04;;;;;;;;;;;;;;;18.63;58.75;97462.91;2076119;28;20385;-66
2023/03/10 03:47:07;;;;;;;;;;;;;;;18.62;58.70;97463.97;2075762;28;20059;-66
2023/03/10 03:48:08;;;;;;;;;;;;;;;18.62;58.98;97467.47;2073905;28;20516;-66
2023/03/10 03:49:10;;;;;;;;;;;;;;;18.66;58.71;97462.44;2070420;28;20129;-66
2023/03/10 03:50:12;;;;;;;;;;;;;;;18.63;58.96;97463.72;2071108;28;19959;-65
2023/03/10 03:51:14;;;;;;;;;;;;;;;18.62;59.00;97464.78;2070586;28;19932;-66
2023/03/10 03:52:14;;;;;;;;;;;;;;;18.59;58.62;97457.19;2071919;28;19933;-66
2023/03/10 03:53:15;;;;;;;;;;;;;;;18.59;58.99;97459.88;2076121;28;19929;-65
2023/03/10 03:54:16;;;;;;;;;;;;;;;18.60;58.90;97468.75;2070844;28;19970;-65
2023/03/10 03:55:18;;;;;;;;;;;;;;;18.60;59.03;97463.38;2079924;28;20352;-66
2023/03/10 03:56:19;;;;;;;;;;;;;;;18.61;59.07;97467.69;2072680;28;23362;-65
2023/03/10 03:57:20;;;;;;;;;;;;;;;18.56;58.62;97463.03;2078167;28;20185;-65
2023/03/10 03:58:21;;;;;;;;;;;;;;;18.56;58.80;97462.22;2072733;28;20242;-65
2023/03/10 03:59:23;;;;;;;;;;;;;;;18.55;58.91;97450.66;2071518;28;20569;-65
2023/03/10 04:00:24;;;;;;;;;;;;;;;18.55;58.81;97456.00;2078774;28;19925;-65
2023/03/10 04:01:25;;;;;;;;;;;;;;;18.54;58.96;97454.38;2072872;28;19990;-66
2023/03/10 04:02:27;;;;;;;;;;;;;;;18.52;58.81;97454.59;2069605;28;19932;-65
2023/03/10 04:03:27;;;;;;;;;;;;;;;18.53;59.03;97450.09;2069945;28;19933;-65
2023/03/10 04:04:29;;;;;;;;;;;;;;;18.52;58.75;97448.44;2067702;28;20321;-65
2023/03/10 04:05:29;;;;;;;;;;;;;;;18.52;58.84;97446.56;2066981;28;20248;-64
2023/03/10 04:06:31;;;;;;;;;;;;;;;18.50;59.00;97446.00;2071952;28;20382;-65
2023/03/10 04:07:31;;;;;;;;;;;;;;;18.50;58.94;97442.50;2070218;28;19986;-65
2023/03/10 04:08:33;;;;;;;;;;;;;;;18.49;59.43;97438.97;2067332;28;19940;-67
2023/03/10 04:09:33;;;;;;;;;;;;;;;18.49;58.87;97425.53;2077104;28;20017;-66
2023/03/10 04:10:34;;;;;;;;;;;;;;;18.51;58.75;97433.38;2069832;28;19933;-66
2023/03/10 04:11:35;;;;;;;;;;;;;;;18.50;58.66;97439.81;2073390;28;19933;-65
2023/03/10 04:12:36;;;;;;;;;;;;;;;18.50;59.01;97448.69;2072850;28;20047;-65
2023/03/10 04:13:37;;;;;;;;;;;;;;;18.52;59.02;97446.56;2060796;28;20145;-65
2023/03/10 04:14:40;;;;;;;;;;;;;;;18.50;58.87;97437.94;2069072;28;20409;-65
2023/03/10 04:15:40;;;;;;;;;;;;;;;18.50;58.99;97426.38;2072550;28;20118;-66
2023/03/10 04:16:41;;;;;;;;;;;;;;;18.50;58.92;97424.50;2074546;28;20306;-65
2023/03/10 04:17:42;;;;;;;;;;;;;;;18.48;58.85;97418.53;2076842;28;19925;-66
2023/03/10 04:18:43;;;;;;;;;;;;;;;18.50;59.00;97427.19;2069709;28;20140;-65
2023/03/10 04:19:44;;;;;;;;;;;;;;;18.51;58.76;97430.69;2068462;28;22268;-65
2023/03/10 04:20:45;;;;;;;;;;;;;;;18.50;58.87;97432.56;2073360;28;19990;-66
2023/03/10 04:21:46;;;;;;;;;;;;;;;18.50;58.68;97429.06;2066163;28;19928;-66
2023/03/10 04:22:47;;;;;;;;;;;;;;;18.50;58.82;97429.88;2077787;28;19924;-65
2023/03/10 04:23:47;;;;;;;;;;;;;;;18.49;58.82;97425.53;2070104;28;19929;-66
2023/03/10 04:24:49;;;;;;;;;;;;;;;18.47;58.69;97413.41;2071340;28;19987;-65
2023/03/10 04:25:49;;;;;;;;;;;;;;;18.46;58.75;97415.28;2071906;28;20060;-66
2023/03/10 04:26:51;;;;;;;;;;;;;;;18.47;58.87;97419.59;2070545;28;20551;-66
2023/03/10 04:27:51;;;;;;;;;;;;;;;18.47;58.71;97416.91;2077295;28;19925;-66
2023/03/10 04:28:53;;;;;;;;;;;;;;;18.47;58.80;97416.91;2071571;28;19928;-65
2023/03/10 04:29:55;;;;;;;;;;;;;;;18.47;58.85;97411.56;2074899;28;19933;-65
2023/03/10 04:30:57;;;;;;;;;;;;;;;18.47;58.77;97416.91;2069853;28;20108;-66
2023/03/10 04:31:57;;;;;;;;;;;;;;;18.49;58.90;97413.97;2075034;28;20453;-65
2023/03/10 04:32:59;;;;;;;;;;;;;;;18.48;58.65;97413.19;2071738;28;20543;-65
2023/03/10 04:33:59;;;;;;;;;;;;;;;18.49;59.11;97408.63;2068696;28;19978;-65
2023/03/10 04:35:01;;;;;;;;;;;;;;;18.48;58.97;97407.81;2068680;28;20471;-65
2023/03/10 04:36:02;;;;;;;;;;;;;;;18.48;58.72;97405.13;2074128;28;20354;-66
2023/03/10 04:37:03;;;;;;;;;;;;;;;18.48;58.53;97405.13;2076516;28;20051;-66
2023/03/10 04:38:05;;;;;;;;;;;;;;;18.50;58.77;97394.97;2077128;28;20006;-65
2023/03/10 04:39:08;;;;;;;;;;;;;;;18.53;58.57;97388.31;2071012;28;20058;-65
2023/03/10 04:40:11;;;;;;;;;;;;;;;18.53;58.79;97391.00;2075413;28;19929;-65
2023/03/10 04:41:12;;;;;;;;;;;;;;;18.54;58.69;97380.03;2071632;28;20122;-65
2023/03/10 04:42:13;;;;;;;;;;;;;;;18.56;58.83;97377.13;2077906;28;20405;-65
2023/03/10 04:43:14;;;;;;;;;;;;;;;18.61;58.71;97374.53;2073397;28;19991;-65
2023/03/10 04:44:15;;;;;;;;;;;;;;;18.64;58.63;97378.63;2069228;28;19982;-65
2023/03/10 04:45:18;;;;;;;;;;;;;;;18.68;58.60;97372.53;2062325;28;19987;-66
2023/03/10 04:46:18;;;;;;;;;;;;;;;18.72;58.62;97372.88;2079191;28;20282;-65
2023/03/10 04:47:19;;;;;;;;;;;;;;;18.75;58.54;97370.59;2073682;28;20026;-66
2023/03/10 04:48:20;;;;;;;;;;;;;;;18.79;58.44;97365.56;2070213;28;20033;-65
2023/03/10 04:49:21;;;;;;;;;;;;;;;18.83;58.53;97365.91;2071008;28;20256;-66
2023/03/10 04:50:22;;;;;;;;;;;;;;;18.86;58.50;97368.94;2074816;28;22129;-65
2023/03/10 04:51:23;;;;;;;;;;;;;;;18.89;58.32;97356.91;2071914;28;19994;-65
2023/03/10 04:52:24;;;;;;;;;;;;;;;18.91;58.29;97357.47;2071914;28;20006;-65
2023/03/10 04:53:25;;;;;;;;;;;;;;;18.92;58.27;97359.94;2074922;28;20628;-64
2023/03/10 04:54:26;;;;;;;;;;;;;;;18.95;58.15;97356.78;2068049;28;20078;-66
2023/03/10 04:55:27;;;;;;;;;;;;;;;19.00;58.13;97361.44;2072211;28;19936;-66
2023/03/10 04:56:28;;;;;;;;;;;;;;;19.01;58.41;97354.19;2077760;28;19928;-65
2023/03/10 04:57:30;;;;;;;;;;;;;;;19.03;58.13;97354.75;2071625;28;19929;-65
2023/03/10 04:58:30;;;;;;;;;;;;;;;19.05;58.16;97352.66;2074769;28;19994;-64
2023/03/10 04:59:32;;;;;;;;;;;;;;;19.06;58.27;97346.25;2072529;28;19937;-64
2023/03/10 05:00:37;;;;;;;;;;;;;;;19.09;58.44;97343.09;2071333;28;19937;-65
2023/03/10 05:01:38;;;;;;;;;;;;;;;19.10;58.25;97355.47;2070878;28;19967;-64
2023/03/10 05:02:40;;;;;;;;;;;;;;;19.13;57.96;97341.53;2071314;28;19924;-65
2023/03/10 05:03:40;;;;;;;;;;;;;;;19.15;58.05;97347.50;2069972;28;20428;-65
2023/03/10 05:04:42;;;;;;;;;;;;;;;19.15;57.98;97336.75;2071652;28;19925;-64
2023/03/10 05:05:42;;;;;;;;;;;;;;;19.20;58.11;97350.28;2076440;28;19970;-66
2023/03/10 05:06:44;;;;;;;;;;;;;;;19.20;58.00;97342.22;2074927;28;20491;-64
2023/03/10 05:07:44;;;;;;;;;;;;;;;19.22;58.07;97345.47;2068374;28;19982;-65
2023/03/10 05:08:46;;;;;;;;;;;;;;;19.24;58.19;97331.81;2069062;28;20437;-65
2023/03/10 05:09:47;;;;;;;;;;;;;;;19.24;58.16;97329.94;2069475;28;19939;-65
2023/03/10 05:10:48;;;;;;;;;;;;;;;19.26;57.78;97325.16;2070537;28;19941;-64
2023/03/10 05:11:49;;;;;;;;;;;;;;;19.28;57.85;97327.56;2070895;28;20456;-64
2023/03/10 05:12:50;;;;;;;;;;;;;;;19.29;58.01;97335.41;2074269;28;19928;-65
2023/03/10 05:13:50;;;;;;;;;;;;;;;19.30;57.87;97330.84;2069782;28;20559;-65
2023/03/10 05:14:52;;;;;;;;;;;;;;;19.33;57.72;97333.88;2071929;28;20002;-65
2023/03/10 05:15:54;;;;;;;;;;;;;;;19.34;57.74;97326.66;2068065;28;20364;-65
2023/03/10 05:16:55;;;;;;;;;;;;;;;19.35;57.95;97321.00;2070967;28;20433;-65
2023/03/10 05:17:57;;;;;;;;;;;;;;;19.36;57.65;97319.13;2071969;28;20207;-65
2023/03/10 05:18:57;;;;;;;;;;;;;;;19.37;57.97;97316.22;2071439;28;19929;-65
2023/03/10 05:19:59;;;;;;;;;;;;;;;19.36;57.76;97317.28;2073498;28;20333;-65
2023/03/10 05:20:59;;;;;;;;;;;;;;;19.37;57.77;97310.03;2069466;28;20053;-65